sensor_id;sensor_type;location;lat;lon;timestamp;P1;durP1;ratioP1;P2;durP2;ratioP2
58615;SDS011;44385;51.992;4.206;2023-06-19T00:01:25;4.30;;;2.58;;
58615;SDS011;44385;51.992;4.206;2023-06-19T00:03:52;4.78;;;2.85;;
58615;SDS011;44385;51.992;4.206;2023-06-19T00:06:18;3.15;;;2.78;;
58615;SDS011;44385;51.992;4.206;2023-06-19T00:08:44;4.13;;;2.40;;
58615;SDS011;44385;51.992;4.206;2023-06-19T00:11:11;4.15;;;2.90;;
58615;SDS011;44385;51.992;4.206;2023-06-19T00:13:39;3.25;;;2.47;;
58615;SDS011;44385;51.992;4.206;2023-06-19T00:16:05;3.33;;;3.00;;
58615;SDS011;44385;51.992;4.206;2023-06-19T00:18:32;3.42;;;3.00;;
58615;SDS011;44385;51.992;4.206;2023-06-19T00:21:05;3.70;;;3.40;;
58615;SDS011;44385;51.992;4.206;2023-06-19T00:23:32;3.53;;;3.22;;
58615;SDS011;44385;51.992;4.206;2023-06-19T00:25:59;3.70;;;3.38;;
58615;SDS011;44385;51.992;4.206;2023-06-19T00:28:26;4.30;;;3.80;;
58615;SDS011;44385;51.992;4.206;2023-06-19T00:30:54;5.05;;;3.53;;
58615;SDS011;44385;51.992;4.206;2023-06-19T00:33:20;3.10;;;2.88;;
58615;SDS011;44385;51.992;4.206;2023-06-19T00:35:47;3.65;;;2.95;;
58615;SDS011;44385;51.992;4.206;2023-06-19T00:38:13;3.17;;;2.88;;
58615;SDS011;44385;51.992;4.206;2023-06-19T00:40:40;3.38;;;3.08;;
58615;SDS011;44385;51.992;4.206;2023-06-19T00:43:06;4.28;;;2.90;;
58615;SDS011;44385;51.992;4.206;2023-06-19T00:45:32;4.40;;;3.85;;
58615;SDS011;44385;51.992;4.206;2023-06-19T00:48:00;4.97;;;3.85;;
58615;SDS011;44385;51.992;4.206;2023-06-19T00:50:27;4.75;;;4.30;;
58615;SDS011;44385;51.992;4.206;2023-06-19T00:52:54;6.00;;;5.40;;
58615;SDS011;44385;51.992;4.206;2023-06-19T00:55:20;6.38;;;5.78;;
58615;SDS011;44385;51.992;4.206;2023-06-19T00:57:47;5.53;;;5.03;;
58615;SDS011;44385;51.992;4.206;2023-06-19T01:00:14;6.53;;;5.82;;
58615;SDS011;44385;51.992;4.206;2023-06-19T01:02:40;7.70;;;6.35;;
58615;SDS011;44385;51.992;4.206;2023-06-19T01:05:08;7.15;;;6.45;;
58615;SDS011;44385;51.992;4.206;2023-06-19T01:07:38;7.75;;;7.10;;
58615;SDS011;44385;51.992;4.206;2023-06-19T01:10:08;7.95;;;7.28;;
58615;SDS011;44385;51.992;4.206;2023-06-19T01:12:38;9.55;;;8.13;;
58615;SDS011;44385;51.992;4.206;2023-06-19T01:15:07;8.63;;;7.88;;
58615;SDS011;44385;51.992;4.206;2023-06-19T01:17:35;9.68;;;8.77;;
58615;SDS011;44385;51.992;4.206;2023-06-19T01:20:01;9.95;;;8.95;;
58615;SDS011;44385;51.992;4.206;2023-06-19T01:22:35;9.77;;;8.98;;
58615;SDS011;44385;51.992;4.206;2023-06-19T01:25:01;11.77;;;10.75;;
58615;SDS011;44385;51.992;4.206;2023-06-19T01:27:29;11.30;;;10.20;;
58615;SDS011;44385;51.992;4.206;2023-06-19T01:29:56;12.18;;;11.05;;
58615;SDS011;44385;51.992;4.206;2023-06-19T01:32:25;13.68;;;11.45;;
58615;SDS011;44385;51.992;4.206;2023-06-19T01:34:55;15.27;;;13.77;;
58615;SDS011;44385;51.992;4.206;2023-06-19T01:37:23;14.63;;;13.13;;
58615;SDS011;44385;51.992;4.206;2023-06-19T01:39:54;15.55;;;13.98;;
58615;SDS011;44385;51.992;4.206;2023-06-19T01:42:21;14.77;;;13.38;;
58615;SDS011;44385;51.992;4.206;2023-06-19T01:44:48;14.52;;;13.13;;
58615;SDS011;44385;51.992;4.206;2023-06-19T01:47:15;16.02;;;14.25;;
58615;SDS011;44385;51.992;4.206;2023-06-19T01:49:44;14.93;;;13.45;;
58615;SDS011;44385;51.992;4.206;2023-06-19T01:52:11;16.30;;;14.75;;
58615;SDS011;44385;51.992;4.206;2023-06-19T01:54:38;16.25;;;14.32;;
58615;SDS011;44385;51.992;4.206;2023-06-19T01:57:06;27.45;;;23.23;;
58615;SDS011;44385;51.992;4.206;2023-06-19T01:59:33;35.33;;;28.37;;
58615;SDS011;44385;51.992;4.206;2023-06-19T02:01:59;39.67;;;29.95;;
58615;SDS011;44385;51.992;4.206;2023-06-19T02:04:25;50.28;;;37.85;;
58615;SDS011;44385;51.992;4.206;2023-06-19T02:06:52;62.58;;;43.65;;
58615;SDS011;44385;51.992;4.206;2023-06-19T02:09:18;61.05;;;43.78;;
58615;SDS011;44385;51.992;4.206;2023-06-19T02:11:44;63.03;;;41.90;;
58615;SDS011;44385;51.992;4.206;2023-06-19T02:14:13;64.25;;;47.80;;
58615;SDS011;44385;51.992;4.206;2023-06-19T02:16:39;68.80;;;49.53;;
58615;SDS011;44385;51.992;4.206;2023-06-19T02:19:08;59.60;;;43.85;;
58615;SDS011;44385;51.992;4.206;2023-06-19T02:21:34;55.05;;;46.65;;
58615;SDS011;44385;51.992;4.206;2023-06-19T02:24:01;58.28;;;44.80;;
58615;SDS011;44385;51.992;4.206;2023-06-19T02:26:27;58.22;;;43.72;;
58615;SDS011;44385;51.992;4.206;2023-06-19T02:28:54;58.67;;;43.60;;
58615;SDS011;44385;51.992;4.206;2023-06-19T02:31:22;52.13;;;43.40;;
58615;SDS011;44385;51.992;4.206;2023-06-19T02:33:48;57.58;;;42.78;;
58615;SDS011;44385;51.992;4.206;2023-06-19T02:36:15;47.95;;;37.78;;
58615;SDS011;44385;51.992;4.206;2023-06-19T02:41:10;59.17;;;44.53;;
58615;SDS011;44385;51.992;4.206;2023-06-19T02:43:39;52.92;;;40.75;;
58615;SDS011;44385;51.992;4.206;2023-06-19T02:46:06;46.30;;;31.67;;
58615;SDS011;44385;51.992;4.206;2023-06-19T02:48:34;35.78;;;27.08;;
58615;SDS011;44385;51.992;4.206;2023-06-19T02:51:00;30.95;;;22.80;;
58615;SDS011;44385;51.992;4.206;2023-06-19T02:53:27;26.92;;;21.10;;
58615;SDS011;44385;51.992;4.206;2023-06-19T02:55:53;33.53;;;27.35;;
58615;SDS011;44385;51.992;4.206;2023-06-19T02:58:20;45.45;;;35.60;;
58615;SDS011;44385;51.992;4.206;2023-06-19T03:00:46;62.72;;;43.13;;
58615;SDS011;44385;51.992;4.206;2023-06-19T03:03:13;63.22;;;47.38;;
58615;SDS011;44385;51.992;4.206;2023-06-19T03:05:40;72.75;;;48.00;;
58615;SDS011;44385;51.992;4.206;2023-06-19T03:08:07;66.85;;;46.60;;
58615;SDS011;44385;51.992;4.206;2023-06-19T03:10:33;71.47;;;48.38;;
58615;SDS011;44385;51.992;4.206;2023-06-19T03:12:59;74.05;;;50.17;;
58615;SDS011;44385;51.992;4.206;2023-06-19T03:15:26;57.22;;;40.80;;
58615;SDS011;44385;51.992;4.206;2023-06-19T03:17:52;57.85;;;39.42;;
58615;SDS011;44385;51.992;4.206;2023-06-19T03:20:19;53.40;;;37.97;;
58615;SDS011;44385;51.992;4.206;2023-06-19T03:22:47;53.08;;;37.03;;
58615;SDS011;44385;51.992;4.206;2023-06-19T03:25:14;41.47;;;30.65;;
58615;SDS011;44385;51.992;4.206;2023-06-19T03:27:40;40.90;;;29.38;;
58615;SDS011;44385;51.992;4.206;2023-06-19T03:30:07;37.25;;;29.10;;
58615;SDS011;44385;51.992;4.206;2023-06-19T03:32:34;34.10;;;24.02;;
58615;SDS011;44385;51.992;4.206;2023-06-19T03:35:01;28.48;;;20.20;;
58615;SDS011;44385;51.992;4.206;2023-06-19T03:37:27;22.52;;;17.73;;
58615;SDS011;44385;51.992;4.206;2023-06-19T03:39:55;22.83;;;17.30;;
58615;SDS011;44385;51.992;4.206;2023-06-19T03:42:22;19.83;;;17.05;;
58615;SDS011;44385;51.992;4.206;2023-06-19T03:44:48;17.15;;;14.50;;
58615;SDS011;44385;51.992;4.206;2023-06-19T03:47:14;17.73;;;14.98;;
58615;SDS011;44385;51.992;4.206;2023-06-19T03:49:41;21.83;;;15.68;;
58615;SDS011;44385;51.992;4.206;2023-06-19T03:52:08;19.63;;;15.68;;
58615;SDS011;44385;51.992;4.206;2023-06-19T03:54:34;20.35;;;15.25;;
58615;SDS011;44385;51.992;4.206;2023-06-19T03:57:02;19.83;;;15.75;;
58615;SDS011;44385;51.992;4.206;2023-06-19T03:59:29;20.17;;;16.45;;
58615;SDS011;44385;51.992;4.206;2023-06-19T04:01:55;22.70;;;17.90;;
58615;SDS011;44385;51.992;4.206;2023-06-19T04:04:22;22.10;;;19.73;;
58615;SDS011;44385;51.992;4.206;2023-06-19T04:06:48;21.92;;;18.20;;
58615;SDS011;44385;51.992;4.206;2023-06-19T04:09:15;25.67;;;20.05;;
58615;SDS011;44385;51.992;4.206;2023-06-19T04:11:41;26.77;;;22.30;;
58615;SDS011;44385;51.992;4.206;2023-06-19T04:14:09;28.33;;;23.55;;
58615;SDS011;44385;51.992;4.206;2023-06-19T04:16:35;31.27;;;22.60;;
58615;SDS011;44385;51.992;4.206;2023-06-19T04:19:01;31.55;;;22.95;;
58615;SDS011;44385;51.992;4.206;2023-06-19T04:21:34;29.55;;;22.98;;
58615;SDS011;44385;51.992;4.206;2023-06-19T04:24:09;30.95;;;23.02;;
58615;SDS011;44385;51.992;4.206;2023-06-19T04:26:35;30.48;;;22.30;;
58615;SDS011;44385;51.992;4.206;2023-06-19T04:29:02;32.10;;;22.58;;
58615;SDS011;44385;51.992;4.206;2023-06-19T04:31:33;32.58;;;22.17;;
58615;SDS011;44385;51.992;4.206;2023-06-19T04:34:05;30.33;;;23.88;;
58615;SDS011;44385;51.992;4.206;2023-06-19T04:36:32;36.90;;;24.90;;
58615;SDS011;44385;51.992;4.206;2023-06-19T04:38:58;36.65;;;26.02;;
58615;SDS011;44385;51.992;4.206;2023-06-19T04:41:26;38.97;;;26.20;;
58615;SDS011;44385;51.992;4.206;2023-06-19T04:43:52;37.70;;;27.83;;
58615;SDS011;44385;51.992;4.206;2023-06-19T04:46:19;35.20;;;26.55;;
58615;SDS011;44385;51.992;4.206;2023-06-19T04:48:47;32.83;;;26.58;;
58615;SDS011;44385;51.992;4.206;2023-06-19T04:51:15;29.60;;;24.00;;
58615;SDS011;44385;51.992;4.206;2023-06-19T04:53:45;33.63;;;25.67;;
58615;SDS011;44385;51.992;4.206;2023-06-19T04:56:11;33.78;;;25.60;;
58615;SDS011;44385;51.992;4.206;2023-06-19T04:58:38;33.00;;;26.73;;
58615;SDS011;44385;51.992;4.206;2023-06-19T05:01:10;34.55;;;27.33;;
58615;SDS011;44385;51.992;4.206;2023-06-19T05:03:37;32.92;;;23.30;;
58615;SDS011;44385;51.992;4.206;2023-06-19T05:06:05;34.00;;;24.63;;
58615;SDS011;44385;51.992;4.206;2023-06-19T05:08:32;34.47;;;24.83;;
58615;SDS011;44385;51.992;4.206;2023-06-19T05:10:58;25.77;;;20.73;;
58615;SDS011;44385;51.992;4.206;2023-06-19T05:13:24;27.27;;;22.27;;
58615;SDS011;44385;51.992;4.206;2023-06-19T05:15:51;29.48;;;22.65;;
58615;SDS011;44385;51.992;4.206;2023-06-19T05:18:18;26.00;;;21.55;;
58615;SDS011;44385;51.992;4.206;2023-06-19T05:20:44;27.50;;;22.58;;
58615;SDS011;44385;51.992;4.206;2023-06-19T05:23:12;27.20;;;22.00;;
58615;SDS011;44385;51.992;4.206;2023-06-19T05:25:39;20.33;;;17.47;;
58615;SDS011;44385;51.992;4.206;2023-06-19T05:28:05;28.98;;;21.55;;
58615;SDS011;44385;51.992;4.206;2023-06-19T05:30:32;25.10;;;22.23;;
58615;SDS011;44385;51.992;4.206;2023-06-19T05:33:00;32.72;;;26.27;;
58615;SDS011;44385;51.992;4.206;2023-06-19T05:35:26;28.33;;;23.77;;
58615;SDS011;44385;51.992;4.206;2023-06-19T05:37:52;27.25;;;22.95;;
58615;SDS011;44385;51.992;4.206;2023-06-19T05:40:20;28.75;;;22.63;;
58615;SDS011;44385;51.992;4.206;2023-06-19T05:42:47;31.75;;;24.17;;
58615;SDS011;44385;51.992;4.206;2023-06-19T05:45:13;26.77;;;22.35;;
58615;SDS011;44385;51.992;4.206;2023-06-19T05:47:40;29.45;;;23.17;;
58615;SDS011;44385;51.992;4.206;2023-06-19T05:50:06;20.15;;;17.90;;
58615;SDS011;44385;51.992;4.206;2023-06-19T05:52:33;20.75;;;17.88;;
58615;SDS011;44385;51.992;4.206;2023-06-19T05:54:59;21.77;;;18.20;;
58615;SDS011;44385;51.992;4.206;2023-06-19T05:57:28;22.90;;;18.17;;
58615;SDS011;44385;51.992;4.206;2023-06-19T05:59:54;19.58;;;17.20;;
58615;SDS011;44385;51.992;4.206;2023-06-19T06:02:20;18.15;;;16.10;;
58615;SDS011;44385;51.992;4.206;2023-06-19T06:04:47;21.60;;;17.48;;
58615;SDS011;44385;51.992;4.206;2023-06-19T06:07:13;22.23;;;18.00;;
58615;SDS011;44385;51.992;4.206;2023-06-19T06:09:40;22.25;;;17.13;;
58615;SDS011;44385;51.992;4.206;2023-06-19T06:12:06;20.00;;;18.00;;
58615;SDS011;44385;51.992;4.206;2023-06-19T06:14:34;21.45;;;18.48;;
58615;SDS011;44385;51.992;4.206;2023-06-19T06:17:01;19.20;;;16.27;;
58615;SDS011;44385;51.992;4.206;2023-06-19T06:19:29;19.40;;;16.52;;
58615;SDS011;44385;51.992;4.206;2023-06-19T06:21:55;18.75;;;15.57;;
58615;SDS011;44385;51.992;4.206;2023-06-19T06:24:22;19.23;;;17.13;;
58615;SDS011;44385;51.992;4.206;2023-06-19T06:26:48;21.55;;;18.55;;
58615;SDS011;44385;51.992;4.206;2023-06-19T06:29:15;20.52;;;18.40;;
58615;SDS011;44385;51.992;4.206;2023-06-19T06:31:45;20.98;;;17.45;;
58615;SDS011;44385;51.992;4.206;2023-06-19T06:34:12;20.05;;;16.35;;
58615;SDS011;44385;51.992;4.206;2023-06-19T06:36:38;19.27;;;16.27;;
58615;SDS011;44385;51.992;4.206;2023-06-19T06:39:05;23.05;;;16.77;;
58615;SDS011;44385;51.992;4.206;2023-06-19T06:41:32;20.73;;;15.57;;
58615;SDS011;44385;51.992;4.206;2023-06-19T06:43:58;19.88;;;15.05;;
58615;SDS011;44385;51.992;4.206;2023-06-19T06:46:24;20.52;;;15.75;;
58615;SDS011;44385;51.992;4.206;2023-06-19T06:48:52;19.15;;;16.50;;
58615;SDS011;44385;51.992;4.206;2023-06-19T06:51:19;20.80;;;16.13;;
58615;SDS011;44385;51.992;4.206;2023-06-19T06:53:47;23.60;;;17.65;;
58615;SDS011;44385;51.992;4.206;2023-06-19T06:56:13;23.17;;;17.58;;
58615;SDS011;44385;51.992;4.206;2023-06-19T06:58:40;19.88;;;15.07;;
58615;SDS011;44385;51.992;4.206;2023-06-19T07:01:06;19.75;;;16.58;;
58615;SDS011;44385;51.992;4.206;2023-06-19T07:03:33;18.88;;;15.70;;
58615;SDS011;44385;51.992;4.206;2023-06-19T07:06:00;18.67;;;15.77;;
58615;SDS011;44385;51.992;4.206;2023-06-19T07:08:27;24.27;;;16.87;;
58615;SDS011;44385;51.992;4.206;2023-06-19T07:10:54;20.05;;;17.98;;
58615;SDS011;44385;51.992;4.206;2023-06-19T07:13:20;25.48;;;18.70;;
58615;SDS011;44385;51.992;4.206;2023-06-19T07:15:47;23.40;;;17.95;;
58615;SDS011;44385;51.992;4.206;2023-06-19T07:18:13;26.23;;;20.48;;
58615;SDS011;44385;51.992;4.206;2023-06-19T07:20:39;26.92;;;19.45;;
58615;SDS011;44385;51.992;4.206;2023-06-19T07:23:07;24.90;;;19.33;;
58615;SDS011;44385;51.992;4.206;2023-06-19T07:25:34;24.83;;;20.30;;
58615;SDS011;44385;51.992;4.206;2023-06-19T07:28:01;23.05;;;19.27;;
58615;SDS011;44385;51.992;4.206;2023-06-19T07:30:29;26.00;;;20.45;;
58615;SDS011;44385;51.992;4.206;2023-06-19T07:32:55;24.73;;;18.45;;
58615;SDS011;44385;51.992;4.206;2023-06-19T07:35:22;29.83;;;18.52;;
58615;SDS011;44385;51.992;4.206;2023-06-19T07:37:48;20.00;;;16.02;;
58615;SDS011;44385;51.992;4.206;2023-06-19T07:40:16;19.17;;;16.30;;
58615;SDS011;44385;51.992;4.206;2023-06-19T07:42:43;24.23;;;17.00;;
58615;SDS011;44385;51.992;4.206;2023-06-19T07:45:10;24.20;;;18.65;;
58615;SDS011;44385;51.992;4.206;2023-06-19T07:47:37;16.08;;;14.10;;
58615;SDS011;44385;51.992;4.206;2023-06-19T07:50:04;17.08;;;13.88;;
58615;SDS011;44385;51.992;4.206;2023-06-19T07:52:30;17.58;;;14.20;;
58615;SDS011;44385;51.992;4.206;2023-06-19T07:54:57;17.75;;;14.77;;
58615;SDS011;44385;51.992;4.206;2023-06-19T07:57:25;16.35;;;13.68;;
58615;SDS011;44385;51.992;4.206;2023-06-19T07:59:52;21.65;;;15.80;;
58615;SDS011;44385;51.992;4.206;2023-06-19T08:02:19;20.52;;;14.50;;
58615;SDS011;44385;51.992;4.206;2023-06-19T08:04:46;16.67;;;13.90;;
58615;SDS011;44385;51.992;4.206;2023-06-19T08:07:13;17.95;;;13.35;;
58615;SDS011;44385;51.992;4.206;2023-06-19T08:09:39;19.33;;;15.32;;
58615;SDS011;44385;51.992;4.206;2023-06-19T08:12:06;19.63;;;14.90;;
58615;SDS011;44385;51.992;4.206;2023-06-19T08:14:34;19.80;;;13.02;;
58615;SDS011;44385;51.992;4.206;2023-06-19T08:17:00;18.33;;;14.25;;
58615;SDS011;44385;51.992;4.206;2023-06-19T08:19:26;15.57;;;13.50;;
58615;SDS011;44385;51.992;4.206;2023-06-19T08:21:53;17.48;;;12.23;;
58615;SDS011;44385;51.992;4.206;2023-06-19T08:24:20;15.65;;;11.80;;
58615;SDS011;44385;51.992;4.206;2023-06-19T08:26:46;20.23;;;12.93;;
58615;SDS011;44385;51.992;4.206;2023-06-19T08:29:16;14.95;;;11.77;;
58615;SDS011;44385;51.992;4.206;2023-06-19T08:31:43;15.63;;;12.90;;
58615;SDS011;44385;51.992;4.206;2023-06-19T08:34:10;15.88;;;12.60;;
58615;SDS011;44385;51.992;4.206;2023-06-19T08:36:37;15.95;;;12.95;;
58615;SDS011;44385;51.992;4.206;2023-06-19T08:39:04;16.60;;;12.32;;
58615;SDS011;44385;51.992;4.206;2023-06-19T08:41:33;17.65;;;12.63;;
58615;SDS011;44385;51.992;4.206;2023-06-19T08:43:59;16.17;;;13.20;;
58615;SDS011;44385;51.992;4.206;2023-06-19T08:46:25;13.48;;;10.80;;
58615;SDS011;44385;51.992;4.206;2023-06-19T08:48:55;16.40;;;12.60;;
58615;SDS011;44385;51.992;4.206;2023-06-19T08:53:49;16.33;;;11.32;;
58615;SDS011;44385;51.992;4.206;2023-06-19T08:56:16;16.73;;;13.03;;
58615;SDS011;44385;51.992;4.206;2023-06-19T08:58:43;15.05;;;13.45;;
58615;SDS011;44385;51.992;4.206;2023-06-19T09:01:09;18.13;;;9.98;;
58615;SDS011;44385;51.992;4.206;2023-06-19T09:03:36;17.48;;;12.02;;
58615;SDS011;44385;51.992;4.206;2023-06-19T09:06:04;14.82;;;11.15;;
58615;SDS011;44385;51.992;4.206;2023-06-19T09:08:32;13.65;;;11.00;;
58615;SDS011;44385;51.992;4.206;2023-06-19T09:10:59;13.23;;;10.77;;
58615;SDS011;44385;51.992;4.206;2023-06-19T09:13:26;14.73;;;11.32;;
58615;SDS011;44385;51.992;4.206;2023-06-19T09:16:00;12.25;;;10.90;;
58615;SDS011;44385;51.992;4.206;2023-06-19T09:18:28;13.70;;;10.93;;
58615;SDS011;44385;51.992;4.206;2023-06-19T09:20:55;12.27;;;10.18;;
58615;SDS011;44385;51.992;4.206;2023-06-19T09:23:23;12.77;;;10.13;;
58615;SDS011;44385;51.992;4.206;2023-06-19T09:25:50;14.02;;;10.40;;
58615;SDS011;44385;51.992;4.206;2023-06-19T09:28:20;16.40;;;10.95;;
58615;SDS011;44385;51.992;4.206;2023-06-19T09:30:54;12.65;;;9.88;;
58615;SDS011;44385;51.992;4.206;2023-06-19T09:33:21;13.00;;;10.48;;
58615;SDS011;44385;51.992;4.206;2023-06-19T09:35:48;13.50;;;10.18;;
58615;SDS011;44385;51.992;4.206;2023-06-19T09:38:16;10.65;;;8.68;;
58615;SDS011;44385;51.992;4.206;2023-06-19T09:40:45;12.48;;;9.60;;
58615;SDS011;44385;51.992;4.206;2023-06-19T09:43:12;10.27;;;9.20;;
58615;SDS011;44385;51.992;4.206;2023-06-19T09:45:39;11.38;;;8.63;;
58615;SDS011;44385;51.992;4.206;2023-06-19T09:48:06;12.25;;;9.45;;
58615;SDS011;44385;51.992;4.206;2023-06-19T09:50:36;12.27;;;8.70;;
58615;SDS011;44385;51.992;4.206;2023-06-19T09:53:04;12.23;;;9.80;;
58615;SDS011;44385;51.992;4.206;2023-06-19T09:55:30;11.98;;;8.98;;
58615;SDS011;44385;51.992;4.206;2023-06-19T09:57:59;9.77;;;7.45;;
58615;SDS011;44385;51.992;4.206;2023-06-19T10:00:28;12.77;;;8.52;;
58615;SDS011;44385;51.992;4.206;2023-06-19T10:02:57;13.85;;;9.57;;
58615;SDS011;44385;51.992;4.206;2023-06-19T10:05:28;14.00;;;8.88;;
58615;SDS011;44385;51.992;4.206;2023-06-19T10:07:55;9.02;;;7.82;;
58615;SDS011;44385;51.992;4.206;2023-06-19T10:10:25;11.57;;;9.15;;
58615;SDS011;44385;51.992;4.206;2023-06-19T10:12:52;10.70;;;8.13;;
58615;SDS011;44385;51.992;4.206;2023-06-19T10:15:22;15.32;;;8.50;;
58615;SDS011;44385;51.992;4.206;2023-06-19T10:17:50;9.82;;;7.28;;
58615;SDS011;44385;51.992;4.206;2023-06-19T10:20:24;10.82;;;8.00;;
58615;SDS011;44385;51.992;4.206;2023-06-19T10:22:56;11.40;;;7.88;;
58615;SDS011;44385;51.992;4.206;2023-06-19T10:25:22;14.23;;;8.55;;
58615;SDS011;44385;51.992;4.206;2023-06-19T10:27:49;8.98;;;8.02;;
58615;SDS011;44385;51.992;4.206;2023-06-19T10:30:17;13.90;;;8.20;;
58615;SDS011;44385;51.992;4.206;2023-06-19T10:32:46;13.13;;;8.68;;
58615;SDS011;44385;51.992;4.206;2023-06-19T10:35:13;9.83;;;7.53;;
58615;SDS011;44385;51.992;4.206;2023-06-19T10:37:39;12.38;;;9.20;;
58615;SDS011;44385;51.992;4.206;2023-06-19T10:40:06;12.02;;;7.55;;
58615;SDS011;44385;51.992;4.206;2023-06-19T10:42:35;10.68;;;7.90;;
58615;SDS011;44385;51.992;4.206;2023-06-19T10:45:02;9.18;;;8.15;;
58615;SDS011;44385;51.992;4.206;2023-06-19T10:47:31;9.98;;;7.82;;
58615;SDS011;44385;51.992;4.206;2023-06-19T10:49:59;9.73;;;8.23;;
58615;SDS011;44385;51.992;4.206;2023-06-19T10:52:27;9.68;;;8.43;;
58615;SDS011;44385;51.992;4.206;2023-06-19T10:54:54;12.02;;;9.32;;
58615;SDS011;44385;51.992;4.206;2023-06-19T10:57:26;10.05;;;9.15;;
58615;SDS011;44385;51.992;4.206;2023-06-19T10:59:52;12.38;;;11.13;;
58615;SDS011;44385;51.992;4.206;2023-06-19T11:02:18;12.85;;;10.55;;
58615;SDS011;44385;51.992;4.206;2023-06-19T11:04:45;13.02;;;10.73;;
58615;SDS011;44385;51.992;4.206;2023-06-19T11:07:13;12.65;;;11.45;;
58615;SDS011;44385;51.992;4.206;2023-06-19T11:09:39;16.13;;;14.05;;
58615;SDS011;44385;51.992;4.206;2023-06-19T11:12:06;14.43;;;12.82;;
58615;SDS011;44385;51.992;4.206;2023-06-19T11:14:33;15.13;;;13.52;;
58615;SDS011;44385;51.992;4.206;2023-06-19T11:17:05;19.10;;;13.50;;
58615;SDS011;44385;51.992;4.206;2023-06-19T11:19:32;16.25;;;14.32;;
58615;SDS011;44385;51.992;4.206;2023-06-19T11:21:59;17.80;;;16.10;;
58615;SDS011;44385;51.992;4.206;2023-06-19T11:24:29;17.00;;;14.77;;
58615;SDS011;44385;51.992;4.206;2023-06-19T11:26:56;19.00;;;17.10;;
58615;SDS011;44385;51.992;4.206;2023-06-19T11:29:24;17.77;;;15.25;;
58615;SDS011;44385;51.992;4.206;2023-06-19T11:31:51;17.50;;;15.80;;
58615;SDS011;44385;51.992;4.206;2023-06-19T11:34:30;19.52;;;16.02;;
58615;SDS011;44385;51.992;4.206;2023-06-19T11:36:57;21.48;;;15.57;;
58615;SDS011;44385;51.992;4.206;2023-06-19T11:39:23;13.57;;;12.10;;
58615;SDS011;44385;51.992;4.206;2023-06-19T11:41:52;15.10;;;13.63;;
58615;SDS011;44385;51.992;4.206;2023-06-19T11:44:18;17.15;;;13.48;;
58615;SDS011;44385;51.992;4.206;2023-06-19T11:46:45;15.77;;;11.77;;
58615;SDS011;44385;51.992;4.206;2023-06-19T11:49:12;16.95;;;11.65;;
58615;SDS011;44385;51.992;4.206;2023-06-19T11:51:39;14.40;;;10.38;;
58615;SDS011;44385;51.992;4.206;2023-06-19T11:54:06;12.63;;;10.55;;
58615;SDS011;44385;51.992;4.206;2023-06-19T11:56:33;14.10;;;8.90;;
58615;SDS011;44385;51.992;4.206;2023-06-19T11:59:02;9.48;;;7.65;;
58615;SDS011;44385;51.992;4.206;2023-06-19T12:01:29;8.52;;;7.13;;
58615;SDS011;44385;51.992;4.206;2023-06-19T12:03:56;7.60;;;6.78;;
58615;SDS011;44385;51.992;4.206;2023-06-19T12:06:23;10.52;;;6.40;;
58615;SDS011;44385;51.992;4.206;2023-06-19T12:08:49;9.35;;;5.78;;
58615;SDS011;44385;51.992;4.206;2023-06-19T12:11:16;6.95;;;6.00;;
58615;SDS011;44385;51.992;4.206;2023-06-19T12:13:42;7.85;;;5.70;;
58615;SDS011;44385;51.992;4.206;2023-06-19T12:16:10;8.13;;;5.30;;
58615;SDS011;44385;51.992;4.206;2023-06-19T12:18:40;9.75;;;6.25;;
58615;SDS011;44385;51.992;4.206;2023-06-19T12:21:06;6.55;;;5.18;;
58615;SDS011;44385;51.992;4.206;2023-06-19T12:23:33;5.75;;;4.60;;
58615;SDS011;44385;51.992;4.206;2023-06-19T12:26:00;7.35;;;5.45;;
58615;SDS011;44385;51.992;4.206;2023-06-19T12:28:26;5.90;;;5.05;;
58615;SDS011;44385;51.992;4.206;2023-06-19T12:30:53;5.65;;;4.75;;
58615;SDS011;44385;51.992;4.206;2023-06-19T12:33:22;6.65;;;5.00;;
58615;SDS011;44385;51.992;4.206;2023-06-19T12:35:49;6.80;;;5.27;;
58615;SDS011;44385;51.992;4.206;2023-06-19T12:38:16;8.98;;;5.22;;
58615;SDS011;44385;51.992;4.206;2023-06-19T12:40:43;7.30;;;5.45;;
58615;SDS011;44385;51.992;4.206;2023-06-19T12:43:09;6.20;;;4.80;;
58615;SDS011;44385;51.992;4.206;2023-06-19T12:45:37;8.70;;;5.35;;
58615;SDS011;44385;51.992;4.206;2023-06-19T12:48:04;6.28;;;5.65;;
58615;SDS011;44385;51.992;4.206;2023-06-19T12:50:32;9.60;;;6.00;;
58615;SDS011;44385;51.992;4.206;2023-06-19T12:52:58;10.90;;;5.97;;
58615;SDS011;44385;51.992;4.206;2023-06-19T12:55:25;6.85;;;5.57;;
58615;SDS011;44385;51.992;4.206;2023-06-19T12:57:51;6.00;;;5.40;;
58615;SDS011;44385;51.992;4.206;2023-06-19T13:00:18;10.80;;;6.85;;
58615;SDS011;44385;51.992;4.206;2023-06-19T13:02:44;8.70;;;6.05;;
58615;SDS011;44385;51.992;4.206;2023-06-19T13:05:14;8.52;;;6.10;;
58615;SDS011;44385;51.992;4.206;2023-06-19T13:07:42;9.95;;;6.13;;
58615;SDS011;44385;51.992;4.206;2023-06-19T13:10:08;8.07;;;5.97;;
58615;SDS011;44385;51.992;4.206;2023-06-19T13:12:35;9.48;;;5.70;;
58615;SDS011;44385;51.992;4.206;2023-06-19T13:15:01;6.75;;;6.05;;
58615;SDS011;44385;51.992;4.206;2023-06-19T13:17:28;9.10;;;6.03;;
58615;SDS011;44385;51.992;4.206;2023-06-19T13:19:54;8.45;;;5.95;;
58615;SDS011;44385;51.992;4.206;2023-06-19T13:22:21;8.25;;;6.13;;
58615;SDS011;44385;51.992;4.206;2023-06-19T13:24:49;8.32;;;5.70;;
58615;SDS011;44385;51.992;4.206;2023-06-19T13:27:16;9.88;;;5.93;;
58615;SDS011;44385;51.992;4.206;2023-06-19T13:29:42;7.90;;;6.88;;
58615;SDS011;44385;51.992;4.206;2023-06-19T13:32:09;13.10;;;6.78;;
58615;SDS011;44385;51.992;4.206;2023-06-19T13:34:35;8.77;;;6.22;;
58615;SDS011;44385;51.992;4.206;2023-06-19T13:37:02;9.40;;;6.75;;
58615;SDS011;44385;51.992;4.206;2023-06-19T13:39:29;10.80;;;7.10;;
58615;SDS011;44385;51.992;4.206;2023-06-19T13:41:58;8.05;;;6.30;;
58615;SDS011;44385;51.992;4.206;2023-06-19T13:44:26;6.90;;;6.20;;
58615;SDS011;44385;51.992;4.206;2023-06-19T13:46:52;8.30;;;6.78;;
58615;SDS011;44385;51.992;4.206;2023-06-19T13:49:19;7.90;;;6.93;;
58615;SDS011;44385;51.992;4.206;2023-06-19T13:51:45;8.50;;;6.35;;
58615;SDS011;44385;51.992;4.206;2023-06-19T13:54:12;8.07;;;6.53;;
58615;SDS011;44385;51.992;4.206;2023-06-19T13:56:39;10.73;;;7.35;;
58615;SDS011;44385;51.992;4.206;2023-06-19T13:59:07;9.82;;;8.18;;
58615;SDS011;44385;51.992;4.206;2023-06-19T14:01:33;8.98;;;6.57;;
58615;SDS011;44385;51.992;4.206;2023-06-19T14:04:00;9.07;;;7.40;;
58615;SDS011;44385;51.992;4.206;2023-06-19T14:06:26;8.90;;;7.43;;
58615;SDS011;44385;51.992;4.206;2023-06-19T14:08:53;9.13;;;6.93;;
58615;SDS011;44385;51.992;4.206;2023-06-19T14:11:20;7.85;;;6.63;;
58615;SDS011;44385;51.992;4.206;2023-06-19T14:13:46;10.25;;;7.32;;
58615;SDS011;44385;51.992;4.206;2023-06-19T14:16:14;8.43;;;6.88;;
58615;SDS011;44385;51.992;4.206;2023-06-19T14:18:41;7.70;;;6.75;;
58615;SDS011;44385;51.992;4.206;2023-06-19T14:21:07;8.80;;;6.60;;
58615;SDS011;44385;51.992;4.206;2023-06-19T14:23:33;10.05;;;6.32;;
58615;SDS011;44385;51.992;4.206;2023-06-19T14:26:05;12.50;;;8.18;;
58615;SDS011;44385;51.992;4.206;2023-06-19T14:28:31;9.38;;;6.65;;
58615;SDS011;44385;51.992;4.206;2023-06-19T14:30:58;7.65;;;6.82;;
58615;SDS011;44385;51.992;4.206;2023-06-19T14:33:26;9.70;;;6.78;;
58615;SDS011;44385;51.992;4.206;2023-06-19T14:35:52;9.32;;;6.13;;